Fort Hall, Kenya

68°F / 20°C
Partly Cloudy
Humidity: 83%
Dew Point: 63°F / 17°C
Wind: NE at 7 mph / 11 km/h
Pressure: 30.18 in / 1022 hPa (Steady)
Visibility: 6.2 miles / 10.0 kilometers
Clouds: (FEW) : 2000 ft / 609 m
Yesterday's Maximum: 81°F / 27°C
Yesterday's Minimum: 61°F / 16°C approx.
Yesterday's Cooling Degree Days: 6 approx.
UV: 0 out of 16
Sunrise:6:27 AM EAT
Sunset:6:33 PM EAT
Moon Rise:6:47 PM EAT
Moon Set:6:20 AM EAT
Moon Phase Full Moon
NOAA Weather Radio
No local feed.
METAR HKJK 182330Z 04006KT 9999 FEW020 20/17 Q1022 NOSIG
As of: 2:30 AM EAT on April 19, 2019
Observed at: Nairobi Jomo, Kenya

View Station's History

Local Satellite

Current Satellite Forecast
Region Default Local
No Yes

View Full Screen WunderMap

Forecast

Current Satellite Forecast

Features

Weather Apps

WunderRadio

Weather Underground Apps
Check out our wide variety of mobile and setup applications.

Weather Underground Applications

Top of Page

© Copyright 2019
The Weather Company, LLC